sensor_id;sensor_type;location;lat;lon;timestamp;P1;durP1;ratioP1;P2;durP2;ratioP2
37917;SDS011;23749;51.410;21.130;2022-11-23T00:01:41;32.27;;;15.97;;
37917;SDS011;23749;51.410;21.130;2022-11-23T00:04:51;26.47;;;13.73;;
37917;SDS011;23749;51.410;21.130;2022-11-23T00:08:02;35.17;;;17.27;;
37917;SDS011;23749;51.410;21.130;2022-11-23T00:11:12;24.90;;;13.17;;
37917;SDS011;23749;51.410;21.130;2022-11-23T00:14:23;28.97;;;14.97;;
37917;SDS011;23749;51.410;21.130;2022-11-23T00:17:33;20.17;;;10.73;;
37917;SDS011;23749;51.410;21.130;2022-11-23T00:20:44;34.63;;;14.73;;
37917;SDS011;23749;51.410;21.130;2022-11-23T00:23:54;28.87;;;12.47;;
37917;SDS011;23749;51.410;21.130;2022-11-23T00:27:06;24.43;;;12.90;;
37917;SDS011;23749;51.410;21.130;2022-11-23T00:30:16;34.37;;;15.10;;
37917;SDS011;23749;51.410;21.130;2022-11-23T00:33:27;28.73;;;13.40;;
37917;SDS011;23749;51.410;21.130;2022-11-23T00:36:37;29.40;;;13.13;;
37917;SDS011;23749;51.410;21.130;2022-11-23T00:39:47;41.83;;;20.33;;
37917;SDS011;23749;51.410;21.130;2022-11-23T00:42:59;49.73;;;21.33;;
37917;SDS011;23749;51.410;21.130;2022-11-23T00:46:12;34.73;;;14.33;;
37917;SDS011;23749;51.410;21.130;2022-11-23T00:49:22;30.97;;;14.13;;
37917;SDS011;23749;51.410;21.130;2022-11-23T00:52:33;21.27;;;8.63;;
37917;SDS011;23749;51.410;21.130;2022-11-23T00:55:49;27.70;;;13.10;;
37917;SDS011;23749;51.410;21.130;2022-11-23T00:59:01;30.30;;;14.10;;
37917;SDS011;23749;51.410;21.130;2022-11-23T01:02:11;36.63;;;14.20;;
37917;SDS011;23749;51.410;21.130;2022-11-23T01:05:22;40.23;;;16.10;;
37917;SDS011;23749;51.410;21.130;2022-11-23T01:08:32;39.77;;;14.67;;
37917;SDS011;23749;51.410;21.130;2022-11-23T01:11:43;43.97;;;15.90;;
37917;SDS011;23749;51.410;21.130;2022-11-23T01:14:55;32.60;;;11.97;;
37917;SDS011;23749;51.410;21.130;2022-11-23T01:18:05;40.37;;;13.53;;
37917;SDS011;23749;51.410;21.130;2022-11-23T01:21:16;41.77;;;14.07;;
37917;SDS011;23749;51.410;21.130;2022-11-23T01:24:26;36.77;;;15.13;;
37917;SDS011;23749;51.410;21.130;2022-11-23T01:27:36;40.43;;;13.47;;
37917;SDS011;23749;51.410;21.130;2022-11-23T01:30:46;33.17;;;15.30;;
37917;SDS011;23749;51.410;21.130;2022-11-23T01:33:59;38.90;;;16.33;;
37917;SDS011;23749;51.410;21.130;2022-11-23T01:37:09;35.10;;;14.57;;
37917;SDS011;23749;51.410;21.130;2022-11-23T01:40:20;29.40;;;13.13;;
37917;SDS011;23749;51.410;21.130;2022-11-23T01:43:30;28.53;;;13.17;;
37917;SDS011;23749;51.410;21.130;2022-11-23T01:46:41;25.77;;;12.30;;
37917;SDS011;23749;51.410;21.130;2022-11-23T01:49:52;28.73;;;13.20;;
37917;SDS011;23749;51.410;21.130;2022-11-23T01:53:05;19.43;;;9.97;;
37917;SDS011;23749;51.410;21.130;2022-11-23T01:56:18;27.93;;;12.03;;
37917;SDS011;23749;51.410;21.130;2022-11-23T01:59:29;29.67;;;13.70;;
37917;SDS011;23749;51.410;21.130;2022-11-23T02:02:41;27.80;;;13.50;;
37917;SDS011;23749;51.410;21.130;2022-11-23T02:05:55;20.87;;;9.40;;
37917;SDS011;23749;51.410;21.130;2022-11-23T02:09:10;31.83;;;13.77;;
37917;SDS011;23749;51.410;21.130;2022-11-23T02:12:20;26.73;;;12.47;;
37917;SDS011;23749;51.410;21.130;2022-11-23T02:15:31;24.50;;;12.00;;
37917;SDS011;23749;51.410;21.130;2022-11-23T02:18:42;21.67;;;10.33;;
37917;SDS011;23749;51.410;21.130;2022-11-23T02:21:53;26.83;;;12.13;;
37917;SDS011;23749;51.410;21.130;2022-11-23T02:25:06;22.27;;;11.73;;
37917;SDS011;23749;51.410;21.130;2022-11-23T02:28:18;27.73;;;14.63;;
37917;SDS011;23749;51.410;21.130;2022-11-23T02:31:30;31.10;;;13.40;;
37917;SDS011;23749;51.410;21.130;2022-11-23T02:34:41;30.50;;;12.83;;
37917;SDS011;23749;51.410;21.130;2022-11-23T02:37:51;27.47;;;12.03;;
37917;SDS011;23749;51.410;21.130;2022-11-23T02:41:02;28.80;;;13.07;;
37917;SDS011;23749;51.410;21.130;2022-11-23T02:44:33;24.83;;;11.50;;
37917;SDS011;23749;51.410;21.130;2022-11-23T02:47:46;26.27;;;12.60;;
37917;SDS011;23749;51.410;21.130;2022-11-23T02:50:58;28.77;;;13.37;;
37917;SDS011;23749;51.410;21.130;2022-11-23T02:54:08;28.60;;;13.13;;
37917;SDS011;23749;51.410;21.130;2022-11-23T02:57:18;27.43;;;12.83;;
37917;SDS011;23749;51.410;21.130;2022-11-23T03:00:29;29.07;;;12.77;;
37917;SDS011;23749;51.410;21.130;2022-11-23T03:03:39;32.33;;;15.83;;
37917;SDS011;23749;51.410;21.130;2022-11-23T03:06:50;29.80;;;13.93;;
37917;SDS011;23749;51.410;21.130;2022-11-23T03:10:00;31.07;;;13.23;;
37917;SDS011;23749;51.410;21.130;2022-11-23T03:13:10;24.17;;;11.30;;
37917;SDS011;23749;51.410;21.130;2022-11-23T03:16:21;22.93;;;12.17;;
37917;SDS011;23749;51.410;21.130;2022-11-23T03:19:31;24.73;;;12.50;;
37917;SDS011;23749;51.410;21.130;2022-11-23T03:22:41;27.37;;;12.23;;
37917;SDS011;23749;51.410;21.130;2022-11-23T03:25:54;22.97;;;11.50;;
37917;SDS011;23749;51.410;21.130;2022-11-23T03:29:04;23.03;;;11.00;;
37917;SDS011;23749;51.410;21.130;2022-11-23T03:32:15;20.23;;;10.73;;
37917;SDS011;23749;51.410;21.130;2022-11-23T03:35:25;16.33;;;9.20;;
37917;SDS011;23749;51.410;21.130;2022-11-23T03:38:35;20.53;;;10.77;;
37917;SDS011;23749;51.410;21.130;2022-11-23T03:41:46;21.33;;;11.03;;
37917;SDS011;23749;51.410;21.130;2022-11-23T03:44:56;25.50;;;13.13;;
37917;SDS011;23749;51.410;21.130;2022-11-23T03:48:08;18.17;;;9.47;;
37917;SDS011;23749;51.410;21.130;2022-11-23T03:51:19;16.07;;;9.10;;
37917;SDS011;23749;51.410;21.130;2022-11-23T03:54:29;23.57;;;10.83;;
37917;SDS011;23749;51.410;21.130;2022-11-23T03:57:39;25.67;;;11.47;;
37917;SDS011;23749;51.410;21.130;2022-11-23T04:00:51;24.23;;;11.10;;
37917;SDS011;23749;51.410;21.130;2022-11-23T04:04:03;14.87;;;6.60;;
37917;SDS011;23749;51.410;21.130;2022-11-23T04:07:13;20.37;;;9.07;;
37917;SDS011;23749;51.410;21.130;2022-11-23T04:10:24;20.90;;;12.10;;
37917;SDS011;23749;51.410;21.130;2022-11-23T04:13:35;17.67;;;10.33;;
37917;SDS011;23749;51.410;21.130;2022-11-23T04:16:45;18.60;;;10.27;;
37917;SDS011;23749;51.410;21.130;2022-11-23T04:19:56;15.50;;;7.60;;
37917;SDS011;23749;51.410;21.130;2022-11-23T04:23:06;20.73;;;10.83;;
37917;SDS011;23749;51.410;21.130;2022-11-23T04:26:16;22.30;;;10.90;;
37917;SDS011;23749;51.410;21.130;2022-11-23T04:29:27;21.37;;;10.87;;
37917;SDS011;23749;51.410;21.130;2022-11-23T04:32:37;21.60;;;10.33;;
37917;SDS011;23749;51.410;21.130;2022-11-23T04:35:47;16.80;;;9.33;;
37917;SDS011;23749;51.410;21.130;2022-11-23T04:38:57;13.27;;;8.13;;
37917;SDS011;23749;51.410;21.130;2022-11-23T04:42:12;25.37;;;13.80;;
37917;SDS011;23749;51.410;21.130;2022-11-23T04:45:22;24.13;;;12.50;;
37917;SDS011;23749;51.410;21.130;2022-11-23T04:48:34;24.30;;;12.10;;
37917;SDS011;23749;51.410;21.130;2022-11-23T04:51:44;22.07;;;12.17;;
37917;SDS011;23749;51.410;21.130;2022-11-23T04:54:54;30.03;;;16.73;;
37917;SDS011;23749;51.410;21.130;2022-11-23T04:58:05;45.57;;;25.40;;
37917;SDS011;23749;51.410;21.130;2022-11-23T05:01:15;32.27;;;16.73;;
37917;SDS011;23749;51.410;21.130;2022-11-23T05:04:26;24.87;;;12.00;;
37917;SDS011;23749;51.410;21.130;2022-11-23T05:07:37;19.40;;;10.77;;
37917;SDS011;23749;51.410;21.130;2022-11-23T05:10:47;43.30;;;19.77;;
37917;SDS011;23749;51.410;21.130;2022-11-23T05:13:57;43.83;;;20.77;;
37917;SDS011;23749;51.410;21.130;2022-11-23T05:17:08;32.10;;;15.33;;
37917;SDS011;23749;51.410;21.130;2022-11-23T05:20:18;17.37;;;7.47;;
37917;SDS011;23749;51.410;21.130;2022-11-23T05:23:29;28.77;;;14.43;;
37917;SDS011;23749;51.410;21.130;2022-11-23T05:26:41;28.90;;;13.10;;
37917;SDS011;23749;51.410;21.130;2022-11-23T05:29:51;54.10;;;24.37;;
37917;SDS011;23749;51.410;21.130;2022-11-23T05:33:01;31.80;;;14.33;;
37917;SDS011;23749;51.410;21.130;2022-11-23T05:36:12;40.57;;;15.37;;
37917;SDS011;23749;51.410;21.130;2022-11-23T05:39:22;25.87;;;11.97;;
37917;SDS011;23749;51.410;21.130;2022-11-23T05:42:33;28.23;;;12.90;;
37917;SDS011;23749;51.410;21.130;2022-11-23T05:45:45;21.87;;;9.23;;
37917;SDS011;23749;51.410;21.130;2022-11-23T05:48:56;18.53;;;9.73;;
37917;SDS011;23749;51.410;21.130;2022-11-23T05:52:08;29.73;;;13.40;;
37917;SDS011;23749;51.410;21.130;2022-11-23T05:55:24;33.53;;;15.70;;
37917;SDS011;23749;51.410;21.130;2022-11-23T05:58:34;29.30;;;12.33;;
37917;SDS011;23749;51.410;21.130;2022-11-23T06:01:45;22.43;;;10.77;;
37917;SDS011;23749;51.410;21.130;2022-11-23T06:04:56;24.40;;;11.20;;
37917;SDS011;23749;51.410;21.130;2022-11-23T06:08:06;24.37;;;12.70;;
37917;SDS011;23749;51.410;21.130;2022-11-23T06:11:16;22.93;;;11.37;;
37917;SDS011;23749;51.410;21.130;2022-11-23T06:14:26;34.83;;;20.07;;
37917;SDS011;23749;51.410;21.130;2022-11-23T06:17:37;63.77;;;36.07;;
37917;SDS011;23749;51.410;21.130;2022-11-23T06:20:47;26.27;;;14.83;;
37917;SDS011;23749;51.410;21.130;2022-11-23T06:23:57;29.93;;;13.70;;
37917;SDS011;23749;51.410;21.130;2022-11-23T06:27:08;29.23;;;14.93;;
37917;SDS011;23749;51.410;21.130;2022-11-23T06:30:19;20.40;;;11.00;;
37917;SDS011;23749;51.410;21.130;2022-11-23T06:33:29;27.67;;;13.70;;
37917;SDS011;23749;51.410;21.130;2022-11-23T06:36:40;25.70;;;12.87;;
37917;SDS011;23749;51.410;21.130;2022-11-23T06:39:50;27.07;;;13.67;;
37917;SDS011;23749;51.410;21.130;2022-11-23T06:43:00;17.60;;;8.97;;
37917;SDS011;23749;51.410;21.130;2022-11-23T06:46:11;17.30;;;9.60;;
37917;SDS011;23749;51.410;21.130;2022-11-23T06:49:21;21.83;;;11.77;;
37917;SDS011;23749;51.410;21.130;2022-11-23T06:52:31;26.43;;;12.67;;
37917;SDS011;23749;51.410;21.130;2022-11-23T06:55:42;22.90;;;10.93;;
37917;SDS011;23749;51.410;21.130;2022-11-23T06:58:53;26.33;;;13.20;;
37917;SDS011;23749;51.410;21.130;2022-11-23T07:02:04;38.43;;;21.37;;
37917;SDS011;23749;51.410;21.130;2022-11-23T07:05:15;38.43;;;16.57;;
37917;SDS011;23749;51.410;21.130;2022-11-23T07:08:26;26.50;;;13.87;;
37917;SDS011;23749;51.410;21.130;2022-11-23T07:11:36;17.60;;;9.23;;
37917;SDS011;23749;51.410;21.130;2022-11-23T07:14:48;15.07;;;8.53;;
37917;SDS011;23749;51.410;21.130;2022-11-23T07:17:58;29.73;;;15.07;;
37917;SDS011;23749;51.410;21.130;2022-11-23T07:21:09;29.10;;;13.37;;
37917;SDS011;23749;51.410;21.130;2022-11-23T07:24:19;31.77;;;15.17;;
37917;SDS011;23749;51.410;21.130;2022-11-23T07:27:29;27.23;;;13.50;;
37917;SDS011;23749;51.410;21.130;2022-11-23T07:30:40;26.67;;;12.13;;
37917;SDS011;23749;51.410;21.130;2022-11-23T07:33:50;30.20;;;14.50;;
37917;SDS011;23749;51.410;21.130;2022-11-23T07:37:01;20.43;;;11.27;;
37917;SDS011;23749;51.410;21.130;2022-11-23T07:40:13;21.97;;;10.60;;
37917;SDS011;23749;51.410;21.130;2022-11-23T07:43:23;17.77;;;7.77;;
37917;SDS011;23749;51.410;21.130;2022-11-23T07:46:35;23.87;;;11.93;;
37917;SDS011;23749;51.410;21.130;2022-11-23T07:49:46;25.70;;;12.57;;
37917;SDS011;23749;51.410;21.130;2022-11-23T07:52:57;30.53;;;15.67;;
37917;SDS011;23749;51.410;21.130;2022-11-23T07:56:08;21.57;;;11.50;;
37917;SDS011;23749;51.410;21.130;2022-11-23T07:59:18;17.73;;;10.50;;
37917;SDS011;23749;51.410;21.130;2022-11-23T08:02:28;23.80;;;11.10;;
37917;SDS011;23749;51.410;21.130;2022-11-23T08:05:40;15.70;;;8.40;;
37917;SDS011;23749;51.410;21.130;2022-11-23T08:08:51;14.67;;;8.63;;
37917;SDS011;23749;51.410;21.130;2022-11-23T08:12:01;17.50;;;8.83;;
37917;SDS011;23749;51.410;21.130;2022-11-23T08:15:12;20.33;;;11.27;;
37917;SDS011;23749;51.410;21.130;2022-11-23T08:18:23;19.47;;;10.20;;
37917;SDS011;23749;51.410;21.130;2022-11-23T08:21:34;22.47;;;11.63;;
37917;SDS011;23749;51.410;21.130;2022-11-23T08:24:44;18.10;;;9.53;;
37917;SDS011;23749;51.410;21.130;2022-11-23T08:27:58;22.83;;;11.73;;
37917;SDS011;23749;51.410;21.130;2022-11-23T08:31:09;27.10;;;13.67;;
37917;SDS011;23749;51.410;21.130;2022-11-23T08:34:20;28.13;;;14.50;;
37917;SDS011;23749;51.410;21.130;2022-11-23T08:37:30;26.10;;;13.67;;
37917;SDS011;23749;51.410;21.130;2022-11-23T08:40:41;29.87;;;12.23;;
37917;SDS011;23749;51.410;21.130;2022-11-23T08:43:51;27.47;;;13.87;;
37917;SDS011;23749;51.410;21.130;2022-11-23T08:47:01;27.67;;;12.83;;
37917;SDS011;23749;51.410;21.130;2022-11-23T08:50:12;25.20;;;13.70;;
37917;SDS011;23749;51.410;21.130;2022-11-23T08:53:22;29.60;;;15.43;;
37917;SDS011;23749;51.410;21.130;2022-11-23T08:56:32;25.80;;;12.30;;
37917;SDS011;23749;51.410;21.130;2022-11-23T08:59:43;32.10;;;15.53;;
37917;SDS011;23749;51.410;21.130;2022-11-23T09:02:55;26.20;;;14.17;;
37917;SDS011;23749;51.410;21.130;2022-11-23T09:06:08;19.53;;;12.13;;
37917;SDS011;23749;51.410;21.130;2022-11-23T09:09:18;30.50;;;15.00;;
37917;SDS011;23749;51.410;21.130;2022-11-23T09:12:28;18.47;;;10.17;;
37917;SDS011;23749;51.410;21.130;2022-11-23T09:15:38;19.97;;;11.50;;
37917;SDS011;23749;51.410;21.130;2022-11-23T09:18:49;16.07;;;9.83;;
37917;SDS011;23749;51.410;21.130;2022-11-23T09:22:01;22.60;;;13.60;;
37917;SDS011;23749;51.410;21.130;2022-11-23T09:25:11;21.43;;;12.93;;
37917;SDS011;23749;51.410;21.130;2022-11-23T09:28:21;18.63;;;10.57;;
37917;SDS011;23749;51.410;21.130;2022-11-23T09:31:34;26.43;;;13.13;;
37917;SDS011;23749;51.410;21.130;2022-11-23T09:34:44;22.93;;;13.77;;
37917;SDS011;23749;51.410;21.130;2022-11-23T09:37:56;23.50;;;13.77;;
37917;SDS011;23749;51.410;21.130;2022-11-23T09:48:26;21.83;;;12.83;;
37917;SDS011;23749;51.410;21.130;2022-11-23T09:51:40;22.47;;;12.93;;
37917;SDS011;23749;51.410;21.130;2022-11-23T09:54:52;25.40;;;14.83;;
37917;SDS011;23749;51.410;21.130;2022-11-23T09:58:05;24.00;;;14.57;;
37917;SDS011;23749;51.410;21.130;2022-11-23T10:01:17;21.73;;;12.07;;
37917;SDS011;23749;51.410;21.130;2022-11-23T10:04:32;24.93;;;14.40;;
37917;SDS011;23749;51.410;21.130;2022-11-23T10:08:05;19.93;;;13.60;;
37917;SDS011;23749;51.410;21.130;2022-11-23T10:17:55;24.90;;;15.73;;
37917;SDS011;23749;51.410;21.130;2022-11-23T10:24:18;24.93;;;14.33;;
37917;SDS011;23749;51.410;21.130;2022-11-23T10:27:29;28.80;;;14.77;;
37917;SDS011;23749;51.410;21.130;2022-11-23T10:30:40;18.80;;;11.00;;
37917;SDS011;23749;51.410;21.130;2022-11-23T10:33:56;31.87;;;19.77;;
37917;SDS011;23749;51.410;21.130;2022-11-23T10:37:08;19.63;;;12.70;;
37917;SDS011;23749;51.410;21.130;2022-11-23T10:40:23;25.83;;;15.43;;
37917;SDS011;23749;51.410;21.130;2022-11-23T10:43:45;23.77;;;13.40;;
37917;SDS011;23749;51.410;21.130;2022-11-23T10:46:57;23.10;;;13.47;;
37917;SDS011;23749;51.410;21.130;2022-11-23T10:50:19;21.40;;;13.17;;
37917;SDS011;23749;51.410;21.130;2022-11-23T10:53:30;28.07;;;16.97;;
37917;SDS011;23749;51.410;21.130;2022-11-23T10:56:46;36.80;;;20.17;;
37917;SDS011;23749;51.410;21.130;2022-11-23T11:00:02;29.47;;;15.27;;
37917;SDS011;23749;51.410;21.130;2022-11-23T11:03:23;29.20;;;17.60;;
37917;SDS011;23749;51.410;21.130;2022-11-23T11:06:33;19.77;;;10.70;;
37917;SDS011;23749;51.410;21.130;2022-11-23T11:09:52;24.10;;;14.13;;
37917;SDS011;23749;51.410;21.130;2022-11-23T11:13:24;22.53;;;12.40;;
37917;SDS011;23749;51.410;21.130;2022-11-23T11:16:35;24.27;;;12.10;;
37917;SDS011;23749;51.410;21.130;2022-11-23T11:19:46;22.83;;;14.00;;
37917;SDS011;23749;51.410;21.130;2022-11-23T11:23:00;21.67;;;13.37;;
37917;SDS011;23749;51.410;21.130;2022-11-23T11:26:19;27.63;;;15.70;;
37917;SDS011;23749;51.410;21.130;2022-11-23T11:29:32;21.97;;;13.17;;
37917;SDS011;23749;51.410;21.130;2022-11-23T11:32:57;21.37;;;13.43;;
37917;SDS011;23749;51.410;21.130;2022-11-23T11:36:10;17.10;;;10.17;;
37917;SDS011;23749;51.410;21.130;2022-11-23T11:39:30;23.80;;;14.73;;
37917;SDS011;23749;51.410;21.130;2022-11-23T11:42:43;24.37;;;12.80;;
37917;SDS011;23749;51.410;21.130;2022-11-23T11:45:57;22.80;;;13.23;;
37917;SDS011;23749;51.410;21.130;2022-11-23T11:49:13;24.27;;;13.57;;
37917;SDS011;23749;51.410;21.130;2022-11-23T11:52:28;34.07;;;19.13;;
37917;SDS011;23749;51.410;21.130;2022-11-23T11:55:47;110.10;;;50.33;;
37917;SDS011;23749;51.410;21.130;2022-11-23T11:59:02;27.90;;;16.50;;
37917;SDS011;23749;51.410;21.130;2022-11-23T12:05:40;26.50;;;17.20;;
37917;SDS011;23749;51.410;21.130;2022-11-23T12:09:12;23.93;;;15.43;;
37917;SDS011;23749;51.410;21.130;2022-11-23T12:12:24;27.70;;;16.63;;
37917;SDS011;23749;51.410;21.130;2022-11-23T12:15:41;20.13;;;12.47;;
37917;SDS011;23749;51.410;21.130;2022-11-23T12:35:55;16.50;;;9.73;;
37917;SDS011;23749;51.410;21.130;2022-11-23T12:39:19;20.57;;;12.13;;
37917;SDS011;23749;51.410;21.130;2022-11-23T12:42:40;22.80;;;12.73;;
37917;SDS011;23749;51.410;21.130;2022-11-23T12:46:09;16.70;;;10.47;;
37917;SDS011;23749;51.410;21.130;2022-11-23T12:59:47;24.33;;;15.23;;
37917;SDS011;23749;51.410;21.130;2022-11-23T13:03:24;20.97;;;13.83;;
37917;SDS011;23749;51.410;21.130;2022-11-23T13:06:44;24.83;;;13.43;;
37917;SDS011;23749;51.410;21.130;2022-11-23T13:10:12;12.67;;;8.27;;
37917;SDS011;23749;51.410;21.130;2022-11-23T13:14:11;26.13;;;15.27;;
37917;SDS011;23749;51.410;21.130;2022-11-23T13:17:31;20.33;;;10.87;;
37917;SDS011;23749;51.410;21.130;2022-11-23T13:23:48;29.63;;;15.43;;
37917;SDS011;23749;51.410;21.130;2022-11-23T13:34:01;44.27;;;20.83;;
37917;SDS011;23749;51.410;21.130;2022-11-23T13:37:13;40.10;;;21.20;;
37917;SDS011;23749;51.410;21.130;2022-11-23T13:40:32;39.67;;;20.30;;
37917;SDS011;23749;51.410;21.130;2022-11-23T13:43:42;31.27;;;17.87;;
37917;SDS011;23749;51.410;21.130;2022-11-23T13:50:36;31.03;;;18.10;;
37917;SDS011;23749;51.410;21.130;2022-11-23T13:53:52;30.33;;;17.03;;
37917;SDS011;23749;51.410;21.130;2022-11-23T13:57:03;40.90;;;24.20;;
37917;SDS011;23749;51.410;21.130;2022-11-23T14:03:45;42.70;;;21.30;;
37917;SDS011;23749;51.410;21.130;2022-11-23T14:07:00;42.93;;;22.40;;
37917;SDS011;23749;51.410;21.130;2022-11-23T14:10:22;50.07;;;24.43;;
37917;SDS011;23749;51.410;21.130;2022-11-23T14:13:32;40.13;;;18.03;;
37917;SDS011;23749;51.410;21.130;2022-11-23T14:30:24;82.77;;;38.67;;
37917;SDS011;23749;51.410;21.130;2022-11-23T14:43:39;43.87;;;21.40;;
37917;SDS011;23749;51.410;21.130;2022-11-23T14:47:00;48.97;;;23.43;;
37917;SDS011;23749;51.410;21.130;2022-11-23T14:50:21;54.67;;;26.57;;
37917;SDS011;23749;51.410;21.130;2022-11-23T14:53:33;35.63;;;19.63;;
37917;SDS011;23749;51.410;21.130;2022-11-23T14:56:47;40.30;;;21.97;;
37917;SDS011;23749;51.410;21.130;2022-11-23T14:59:58;40.87;;;18.43;;
37917;SDS011;23749;51.410;21.130;2022-11-23T15:03:17;49.97;;;24.27;;
37917;SDS011;23749;51.410;21.130;2022-11-23T15:06:29;56.60;;;31.17;;
37917;SDS011;23749;51.410;21.130;2022-11-23T15:12:51;49.53;;;26.50;;
37917;SDS011;23749;51.410;21.130;2022-11-23T15:16:02;73.03;;;36.70;;
37917;SDS011;23749;51.410;21.130;2022-11-23T15:19:46;56.47;;;29.37;;
37917;SDS011;23749;51.410;21.130;2022-11-23T15:22:51;35.53;;;17.53;;
37917;SDS011;23749;51.410;21.130;2022-11-23T15:26:03;44.47;;;22.30;;
37917;SDS011;23749;51.410;21.130;2022-11-23T15:29:27;63.70;;;31.20;;
37917;SDS011;23749;51.410;21.130;2022-11-23T15:32:37;48.83;;;22.93;;
37917;SDS011;23749;51.410;21.130;2022-11-23T15:35:48;55.40;;;27.30;;
37917;SDS011;23749;51.410;21.130;2022-11-23T15:39:00;65.37;;;32.23;;
37917;SDS011;23749;51.410;21.130;2022-11-23T15:42:14;56.63;;;28.23;;
37917;SDS011;23749;51.410;21.130;2022-11-23T15:45:37;65.67;;;32.37;;
37917;SDS011;23749;51.410;21.130;2022-11-23T15:48:48;68.27;;;31.23;;
37917;SDS011;23749;51.410;21.130;2022-11-23T15:51:59;85.43;;;38.20;;
37917;SDS011;23749;51.410;21.130;2022-11-23T15:55:12;70.27;;;34.00;;
37917;SDS011;23749;51.410;21.130;2022-11-23T15:58:23;73.93;;;33.03;;
37917;SDS011;23749;51.410;21.130;2022-11-23T16:01:34;75.10;;;36.67;;
37917;SDS011;23749;51.410;21.130;2022-11-23T16:04:47;66.00;;;32.03;;
37917;SDS011;23749;51.410;21.130;2022-11-23T16:08:00;62.13;;;31.30;;
37917;SDS011;23749;51.410;21.130;2022-11-23T16:11:18;38.17;;;20.13;;
37917;SDS011;23749;51.410;21.130;2022-11-23T16:14:30;48.50;;;24.47;;
37917;SDS011;23749;51.410;21.130;2022-11-23T16:17:45;46.07;;;23.97;;
37917;SDS011;23749;51.410;21.130;2022-11-23T16:20:57;45.47;;;23.50;;
37917;SDS011;23749;51.410;21.130;2022-11-23T16:24:14;46.47;;;23.03;;
37917;SDS011;23749;51.410;21.130;2022-11-23T16:27:27;47.10;;;24.80;;
37917;SDS011;23749;51.410;21.130;2022-11-23T16:30:38;53.77;;;27.67;;
37917;SDS011;23749;51.410;21.130;2022-11-23T16:33:49;57.50;;;26.33;;
37917;SDS011;23749;51.410;21.130;2022-11-23T16:37:00;23.10;;;12.27;;
37917;SDS011;23749;51.410;21.130;2022-11-23T16:40:12;47.13;;;23.40;;
37917;SDS011;23749;51.410;21.130;2022-11-23T16:43:23;31.87;;;17.47;;
37917;SDS011;23749;51.410;21.130;2022-11-23T16:46:33;42.87;;;22.07;;
37917;SDS011;23749;51.410;21.130;2022-11-23T16:49:44;36.17;;;17.23;;
37917;SDS011;23749;51.410;21.130;2022-11-23T16:52:54;41.87;;;20.70;;
37917;SDS011;23749;51.410;21.130;2022-11-23T16:56:04;33.20;;;17.17;;
37917;SDS011;23749;51.410;21.130;2022-11-23T16:59:15;24.93;;;14.33;;
37917;SDS011;23749;51.410;21.130;2022-11-23T17:02:27;51.30;;;23.97;;
37917;SDS011;23749;51.410;21.130;2022-11-23T17:05:39;38.73;;;19.63;;
37917;SDS011;23749;51.410;21.130;2022-11-23T17:08:50;31.90;;;16.83;;
37917;SDS011;23749;51.410;21.130;2022-11-23T17:12:01;46.93;;;23.10;;
37917;SDS011;23749;51.410;21.130;2022-11-23T17:15:13;52.87;;;25.57;;
37917;SDS011;23749;51.410;21.130;2022-11-23T17:18:26;50.43;;;23.87;;
37917;SDS011;23749;51.410;21.130;2022-11-23T17:21:36;57.50;;;29.50;;
37917;SDS011;23749;51.410;21.130;2022-11-23T17:24:50;75.10;;;34.67;;
37917;SDS011;23749;51.410;21.130;2022-11-23T17:28:03;47.30;;;21.73;;
37917;SDS011;23749;51.410;21.130;2022-11-23T17:31:13;52.27;;;24.27;;
37917;SDS011;23749;51.410;21.130;2022-11-23T17:34:24;50.17;;;24.93;;
37917;SDS011;23749;51.410;21.130;2022-11-23T17:37:34;35.87;;;20.23;;
37917;SDS011;23749;51.410;21.130;2022-11-23T17:40:45;62.13;;;32.17;;
37917;SDS011;23749;51.410;21.130;2022-11-23T17:43:56;56.00;;;25.23;;
37917;SDS011;23749;51.410;21.130;2022-11-23T17:47:24;50.27;;;21.67;;
37917;SDS011;23749;51.410;21.130;2022-11-23T17:50:37;55.40;;;25.37;;
37917;SDS011;23749;51.410;21.130;2022-11-23T17:53:49;53.30;;;25.47;;
37917;SDS011;23749;51.410;21.130;2022-11-23T17:56:59;52.90;;;26.13;;
37917;SDS011;23749;51.410;21.130;2022-11-23T18:00:21;65.53;;;28.40;;
37917;SDS011;23749;51.410;21.130;2022-11-23T18:03:32;46.13;;;22.73;;
37917;SDS011;23749;51.410;21.130;2022-11-23T18:06:42;49.50;;;23.97;;
37917;SDS011;23749;51.410;21.130;2022-11-23T18:09:53;50.80;;;25.90;;
37917;SDS011;23749;51.410;21.130;2022-11-23T18:13:03;56.47;;;29.27;;
37917;SDS011;23749;51.410;21.130;2022-11-23T18:16:13;46.73;;;25.50;;
37917;SDS011;23749;51.410;21.130;2022-11-23T18:19:25;46.50;;;23.13;;
37917;SDS011;23749;51.410;21.130;2022-11-23T18:22:36;42.03;;;22.90;;
37917;SDS011;23749;51.410;21.130;2022-11-23T18:25:50;38.87;;;19.33;;
37917;SDS011;23749;51.410;21.130;2022-11-23T18:29:06;27.57;;;14.03;;
37917;SDS011;23749;51.410;21.130;2022-11-23T18:32:18;45.43;;;23.17;;
37917;SDS011;23749;51.410;21.130;2022-11-23T18:35:30;38.87;;;17.73;;
37917;SDS011;23749;51.410;21.130;2022-11-23T18:38:40;33.70;;;16.50;;
37917;SDS011;23749;51.410;21.130;2022-11-23T18:41:56;37.97;;;23.33;;
37917;SDS011;23749;51.410;21.130;2022-11-23T18:45:07;42.17;;;21.07;;
37917;SDS011;23749;51.410;21.130;2022-11-23T18:48:17;33.17;;;17.20;;
37917;SDS011;23749;51.410;21.130;2022-11-23T18:51:28;27.97;;;14.27;;
37917;SDS011;23749;51.410;21.130;2022-11-23T18:54:39;28.40;;;17.27;;
37917;SDS011;23749;51.410;21.130;2022-11-23T18:57:51;42.17;;;22.80;;
37917;SDS011;23749;51.410;21.130;2022-11-23T19:01:06;31.40;;;17.13;;
37917;SDS011;23749;51.410;21.130;2022-11-23T19:04:18;24.07;;;11.37;;
37917;SDS011;23749;51.410;21.130;2022-11-23T19:07:29;26.60;;;14.60;;
37917;SDS011;23749;51.410;21.130;2022-11-23T19:10:39;34.47;;;15.80;;
37917;SDS011;23749;51.410;21.130;2022-11-23T19:13:50;18.67;;;10.17;;
37917;SDS011;23749;51.410;21.130;2022-11-23T19:17:00;40.30;;;20.03;;
37917;SDS011;23749;51.410;21.130;2022-11-23T19:20:11;37.00;;;20.07;;
37917;SDS011;23749;51.410;21.130;2022-11-23T19:23:21;49.93;;;23.43;;
37917;SDS011;23749;51.410;21.130;2022-11-23T19:26:32;43.23;;;21.40;;
37917;SDS011;23749;51.410;21.130;2022-11-23T19:29:42;25.53;;;12.93;;
37917;SDS011;23749;51.410;21.130;2022-11-23T19:32:52;35.73;;;18.90;;
37917;SDS011;23749;51.410;21.130;2022-11-23T19:36:03;39.00;;;19.27;;
37917;SDS011;23749;51.410;21.130;2022-11-23T19:39:14;37.10;;;19.30;;
37917;SDS011;23749;51.410;21.130;2022-11-23T19:42:24;33.13;;;18.67;;
37917;SDS011;23749;51.410;21.130;2022-11-23T19:45:35;30.50;;;17.73;;
37917;SDS011;23749;51.410;21.130;2022-11-23T19:48:45;36.83;;;19.20;;
37917;SDS011;23749;51.410;21.130;2022-11-23T19:51:56;38.33;;;19.53;;
37917;SDS011;23749;51.410;21.130;2022-11-23T19:55:07;29.30;;;15.50;;
37917;SDS011;23749;51.410;21.130;2022-11-23T19:58:17;38.30;;;19.67;;
37917;SDS011;23749;51.410;21.130;2022-11-23T20:01:29;36.33;;;17.63;;